sensor_id;sensor_type;location;lat;lon;timestamp;pressure;altitude;pressure_sealevel;temperature;humidity
32083;BME280;18597;48.328;7.932;2022-09-09T00:00:19;99174.22;;;15.72;100.00
32083;BME280;18597;48.328;7.932;2022-09-09T00:03:01;99168.03;;;15.55;100.00
32083;BME280;18597;48.328;7.932;2022-09-09T00:05:55;99165.00;;;15.59;100.00
32083;BME280;18597;48.328;7.932;2022-09-09T00:08:37;99166.56;;;15.45;100.00
32083;BME280;18597;48.328;7.932;2022-09-09T00:11:12;99170.41;;;15.50;100.00
32083;BME280;18597;48.328;7.932;2022-09-09T00:13:46;99170.38;;;15.59;100.00
32083;BME280;18597;48.328;7.932;2022-09-09T00:16:32;99179.31;;;15.59;100.00
32083;BME280;18597;48.328;7.932;2022-09-09T00:19:18;99184.69;;;15.59;100.00
32083;BME280;18597;48.328;7.932;2022-09-09T00:22:17;99193.44;;;15.61;100.00
32083;BME280;18597;48.328;7.932;2022-09-09T00:24:55;99193.97;;;15.65;100.00
32083;BME280;18597;48.328;7.932;2022-09-09T00:27:40;99192.06;;;15.73;100.00
32083;BME280;18597;48.328;7.932;2022-09-09T00:30:31;99200.09;;;15.81;100.00
32083;BME280;18597;48.328;7.932;2022-09-09T00:33:01;99195.88;;;15.87;100.00
32083;BME280;18597;48.328;7.932;2022-09-09T00:35:38;99206.19;;;15.75;100.00
32083;BME280;18597;48.328;7.932;2022-09-09T00:44:16;99180.78;;;15.70;100.00
32083;BME280;18597;48.328;7.932;2022-09-09T00:47:45;99176.38;;;15.77;100.00
32083;BME280;18597;48.328;7.932;2022-09-09T00:50:17;99173.22;;;15.73;100.00
32083;BME280;18597;48.328;7.932;2022-09-09T00:53:24;99190.41;;;15.56;100.00
32083;BME280;18597;48.328;7.932;2022-09-09T00:56:25;99187.19;;;15.61;100.00
32083;BME280;18597;48.328;7.932;2022-09-09T01:01:45;99194.94;;;15.55;100.00
32083;BME280;18597;48.328;7.932;2022-09-09T01:04:19;99191.22;;;15.73;100.00
32083;BME280;18597;48.328;7.932;2022-09-09T01:06:55;99188.50;;;15.81;100.00
32083;BME280;18597;48.328;7.932;2022-09-09T01:09:42;99187.44;;;15.90;100.00
32083;BME280;18597;48.328;7.932;2022-09-09T01:12:23;99192.13;;;15.96;100.00
32083;BME280;18597;48.328;7.932;2022-09-09T01:15:12;99192.59;;;16.00;100.00
32083;BME280;18597;48.328;7.932;2022-09-09T01:21:34;99170.91;;;15.93;100.00
32083;BME280;18597;48.328;7.932;2022-09-09T01:26:58;99170.66;;;15.80;100.00
32083;BME280;18597;48.328;7.932;2022-09-09T01:29:25;99178.19;;;15.85;100.00
32083;BME280;18597;48.328;7.932;2022-09-09T01:31:56;99176.75;;;16.05;100.00
32083;BME280;18597;48.328;7.932;2022-09-09T01:34:26;99172.00;;;16.07;100.00
32083;BME280;18597;48.328;7.932;2022-09-09T01:37:11;99175.16;;;16.19;100.00
32083;BME280;18597;48.328;7.932;2022-09-09T01:39:40;99175.03;;;16.12;100.00
32083;BME280;18597;48.328;7.932;2022-09-09T01:42:11;99167.25;;;16.17;100.00
32083;BME280;18597;48.328;7.932;2022-09-09T01:44:39;99176.91;;;16.34;100.00
32083;BME280;18597;48.328;7.932;2022-09-09T01:47:05;99169.28;;;16.38;100.00
32083;BME280;18597;48.328;7.932;2022-09-09T01:49:32;99159.88;;;16.34;100.00
32083;BME280;18597;48.328;7.932;2022-09-09T01:51:59;99153.81;;;16.32;99.61
32083;BME280;18597;48.328;7.932;2022-09-09T01:54:29;99157.06;;;16.27;99.40
32083;BME280;18597;48.328;7.932;2022-09-09T01:57:36;99153.41;;;16.20;99.15
32083;BME280;18597;48.328;7.932;2022-09-09T02:00:08;99157.25;;;16.26;97.25
32083;BME280;18597;48.328;7.932;2022-09-09T02:03:04;99155.41;;;16.26;98.00
32083;BME280;18597;48.328;7.932;2022-09-09T02:05:45;99152.97;;;16.31;95.53
32083;BME280;18597;48.328;7.932;2022-09-09T02:08:23;99157.06;;;16.04;98.85
32083;BME280;18597;48.328;7.932;2022-09-09T02:11:07;99165.31;;;16.03;99.77
32083;BME280;18597;48.328;7.932;2022-09-09T02:13:38;99151.09;;;16.17;98.50
32083;BME280;18597;48.328;7.932;2022-09-09T02:16:11;99161.69;;;16.19;97.62
32083;BME280;18597;48.328;7.932;2022-09-09T02:18:56;99158.34;;;16.08;100.00
32083;BME280;18597;48.328;7.932;2022-09-09T02:21:24;99167.34;;;16.01;100.00
32083;BME280;18597;48.328;7.932;2022-09-09T02:23:51;99178.28;;;15.99;100.00
32083;BME280;18597;48.328;7.932;2022-09-09T02:26:19;99159.44;;;15.99;100.00
32083;BME280;18597;48.328;7.932;2022-09-09T02:28:50;99168.53;;;15.98;100.00
32083;BME280;18597;48.328;7.932;2022-09-09T02:31:19;99172.19;;;16.05;100.00
32083;BME280;18597;48.328;7.932;2022-09-09T02:33:55;99172.72;;;16.01;100.00
32083;BME280;18597;48.328;7.932;2022-09-09T02:36:25;99166.53;;;15.92;100.00
32083;BME280;18597;48.328;7.932;2022-09-09T02:38:52;99167.78;;;15.81;100.00
32083;BME280;18597;48.328;7.932;2022-09-09T02:41:27;99169.84;;;15.71;100.00
32083;BME280;18597;48.328;7.932;2022-09-09T02:43:56;99177.81;;;15.65;100.00
32083;BME280;18597;48.328;7.932;2022-09-09T02:53:09;99174.53;;;15.77;100.00
32083;BME280;18597;48.328;7.932;2022-09-09T02:56:04;99174.34;;;15.79;100.00
32083;BME280;18597;48.328;7.932;2022-09-09T02:58:32;99171.84;;;15.77;100.00
32083;BME280;18597;48.328;7.932;2022-09-09T03:00:58;99164.78;;;15.76;100.00
32083;BME280;18597;48.328;7.932;2022-09-09T03:03:26;99170.66;;;15.80;100.00
32083;BME280;18597;48.328;7.932;2022-09-09T03:05:52;99171.09;;;15.92;100.00
32083;BME280;18597;48.328;7.932;2022-09-09T03:08:18;99160.09;;;16.01;100.00
32083;BME280;18597;48.328;7.932;2022-09-09T03:10:44;99169.19;;;16.00;100.00
32083;BME280;18597;48.328;7.932;2022-09-09T03:13:10;99160.34;;;16.15;100.00
32083;BME280;18597;48.328;7.932;2022-09-09T03:15:37;99161.88;;;16.09;100.00
32083;BME280;18597;48.328;7.932;2022-09-09T03:18:03;99155.38;;;16.03;100.00
32083;BME280;18597;48.328;7.932;2022-09-09T03:20:30;99164.63;;;16.01;100.00
32083;BME280;18597;48.328;7.932;2022-09-09T03:22:56;99154.19;;;16.06;100.00
32083;BME280;18597;48.328;7.932;2022-09-09T03:25:23;99158.91;;;16.04;100.00
32083;BME280;18597;48.328;7.932;2022-09-09T03:27:51;99147.44;;;16.10;100.00
32083;BME280;18597;48.328;7.932;2022-09-09T03:30:21;99150.69;;;15.97;100.00
32083;BME280;18597;48.328;7.932;2022-09-09T03:32:47;99148.94;;;15.81;100.00
32083;BME280;18597;48.328;7.932;2022-09-09T03:35:14;99151.13;;;15.78;100.00
32083;BME280;18597;48.328;7.932;2022-09-09T03:37:40;99156.72;;;15.68;100.00
32083;BME280;18597;48.328;7.932;2022-09-09T03:40:07;99157.75;;;15.59;100.00
32083;BME280;18597;48.328;7.932;2022-09-09T03:42:36;99155.25;;;15.58;100.00
32083;BME280;18597;48.328;7.932;2022-09-09T03:45:05;99146.94;;;15.75;100.00
32083;BME280;18597;48.328;7.932;2022-09-09T03:47:31;99154.38;;;15.73;100.00
32083;BME280;18597;48.328;7.932;2022-09-09T03:49:57;99162.63;;;15.55;100.00
32083;BME280;18597;48.328;7.932;2022-09-09T03:52:22;99157.28;;;15.47;100.00
32083;BME280;18597;48.328;7.932;2022-09-09T03:54:52;99156.13;;;15.50;100.00
32083;BME280;18597;48.328;7.932;2022-09-09T03:57:19;99157.09;;;15.65;100.00
32083;BME280;18597;48.328;7.932;2022-09-09T03:59:45;99153.38;;;15.66;100.00
32083;BME280;18597;48.328;7.932;2022-09-09T04:02:11;99153.84;;;15.70;100.00
32083;BME280;18597;48.328;7.932;2022-09-09T04:04:37;99159.28;;;15.62;100.00
32083;BME280;18597;48.328;7.932;2022-09-09T04:07:03;99150.06;;;15.40;100.00
32083;BME280;18597;48.328;7.932;2022-09-09T04:09:31;99161.44;;;15.19;100.00
32083;BME280;18597;48.328;7.932;2022-09-09T04:11:57;99147.31;;;15.09;100.00
32083;BME280;18597;48.328;7.932;2022-09-09T04:14:23;99156.25;;;15.01;100.00
32083;BME280;18597;48.328;7.932;2022-09-09T04:16:49;99155.25;;;14.94;100.00
32083;BME280;18597;48.328;7.932;2022-09-09T04:19:15;99149.03;;;14.85;100.00
32083;BME280;18597;48.328;7.932;2022-09-09T04:21:41;99153.25;;;14.71;100.00
32083;BME280;18597;48.328;7.932;2022-09-09T04:24:08;99146.38;;;14.69;100.00
32083;BME280;18597;48.328;7.932;2022-09-09T04:26:35;99148.56;;;14.57;100.00
32083;BME280;18597;48.328;7.932;2022-09-09T04:29:03;99156.78;;;14.48;100.00
32083;BME280;18597;48.328;7.932;2022-09-09T04:31:30;99159.25;;;14.33;100.00
32083;BME280;18597;48.328;7.932;2022-09-09T04:33:56;99160.09;;;14.25;100.00
32083;BME280;18597;48.328;7.932;2022-09-09T04:36:22;99165.81;;;14.14;100.00
32083;BME280;18597;48.328;7.932;2022-09-09T04:38:48;99167.94;;;14.02;100.00
32083;BME280;18597;48.328;7.932;2022-09-09T04:41:15;99169.47;;;14.05;100.00
32083;BME280;18597;48.328;7.932;2022-09-09T04:43:42;99172.81;;;13.99;100.00
32083;BME280;18597;48.328;7.932;2022-09-09T04:46:08;99172.00;;;13.98;100.00
32083;BME280;18597;48.328;7.932;2022-09-09T04:48:34;99165.41;;;13.93;100.00
32083;BME280;18597;48.328;7.932;2022-09-09T04:51:05;99167.56;;;13.89;100.00
32083;BME280;18597;48.328;7.932;2022-09-09T04:53:31;99177.31;;;13.90;100.00
32083;BME280;18597;48.328;7.932;2022-09-09T04:56:11;99177.50;;;13.97;100.00
32083;BME280;18597;48.328;7.932;2022-09-09T04:58:39;99180.06;;;14.06;100.00
32083;BME280;18597;48.328;7.932;2022-09-09T05:01:09;99178.56;;;14.20;100.00
32083;BME280;18597;48.328;7.932;2022-09-09T05:03:35;99179.09;;;14.40;100.00
32083;BME280;18597;48.328;7.932;2022-09-09T05:06:07;99191.06;;;14.46;100.00
32083;BME280;18597;48.328;7.932;2022-09-09T05:08:37;99185.53;;;14.55;100.00
32083;BME280;18597;48.328;7.932;2022-09-09T05:11:21;99185.03;;;14.68;100.00
32083;BME280;18597;48.328;7.932;2022-09-09T05:13:49;99195.44;;;14.79;100.00
32083;BME280;18597;48.328;7.932;2022-09-09T05:16:16;99190.03;;;14.87;100.00
32083;BME280;18597;48.328;7.932;2022-09-09T05:18:42;99183.66;;;15.05;100.00
32083;BME280;18597;48.328;7.932;2022-09-09T05:21:09;99180.44;;;15.01;100.00
32083;BME280;18597;48.328;7.932;2022-09-09T05:23:35;99176.59;;;15.12;100.00
32083;BME280;18597;48.328;7.932;2022-09-09T05:26:02;99186.16;;;15.14;100.00
32083;BME280;18597;48.328;7.932;2022-09-09T05:28:28;99181.78;;;15.21;100.00
32083;BME280;18597;48.328;7.932;2022-09-09T05:30:59;99180.22;;;15.35;100.00
32083;BME280;18597;48.328;7.932;2022-09-09T05:33:26;99189.22;;;15.59;100.00
32083;BME280;18597;48.328;7.932;2022-09-09T05:35:59;99187.38;;;15.67;100.00
32083;BME280;18597;48.328;7.932;2022-09-09T05:38:25;99191.69;;;15.76;100.00
32083;BME280;18597;48.328;7.932;2022-09-09T05:40:53;99191.16;;;15.89;100.00
32083;BME280;18597;48.328;7.932;2022-09-09T05:43:20;99191.28;;;15.96;100.00
32083;BME280;18597;48.328;7.932;2022-09-09T05:45:48;99200.53;;;15.93;100.00
32083;BME280;18597;48.328;7.932;2022-09-09T05:48:15;99200.69;;;16.00;100.00
32083;BME280;18597;48.328;7.932;2022-09-09T05:50:42;99196.97;;;16.01;100.00
32083;BME280;18597;48.328;7.932;2022-09-09T05:53:09;99195.94;;;16.10;100.00
32083;BME280;18597;48.328;7.932;2022-09-09T05:55:36;99190.63;;;16.25;100.00
32083;BME280;18597;48.328;7.932;2022-09-09T05:58:02;99191.78;;;16.22;100.00
32083;BME280;18597;48.328;7.932;2022-09-09T06:00:28;99193.59;;;16.30;100.00
32083;BME280;18597;48.328;7.932;2022-09-09T06:02:55;99200.78;;;16.37;100.00
32083;BME280;18597;48.328;7.932;2022-09-09T06:05:21;99197.50;;;16.50;100.00
32083;BME280;18597;48.328;7.932;2022-09-09T06:07:51;99199.31;;;16.58;100.00
32083;BME280;18597;48.328;7.932;2022-09-09T06:10:17;99196.22;;;16.69;100.00
32083;BME280;18597;48.328;7.932;2022-09-09T06:12:43;99184.16;;;16.80;100.00
32083;BME280;18597;48.328;7.932;2022-09-09T06:15:09;99199.56;;;16.94;100.00
32083;BME280;18597;48.328;7.932;2022-09-09T06:17:35;99194.91;;;17.03;100.00
32083;BME280;18597;48.328;7.932;2022-09-09T06:20:03;99198.38;;;17.11;100.00
32083;BME280;18597;48.328;7.932;2022-09-09T06:22:29;99196.97;;;17.30;98.95
32083;BME280;18597;48.328;7.932;2022-09-09T06:24:54;99195.31;;;17.29;98.26
32083;BME280;18597;48.328;7.932;2022-09-09T06:27:20;99195.69;;;17.26;98.98
32083;BME280;18597;48.328;7.932;2022-09-09T06:29:46;99195.31;;;17.29;99.00
32083;BME280;18597;48.328;7.932;2022-09-09T06:32:13;99189.00;;;17.37;97.47
32083;BME280;18597;48.328;7.932;2022-09-09T06:34:39;99193.28;;;17.31;98.73
32083;BME280;18597;48.328;7.932;2022-09-09T06:37:05;99197.28;;;17.35;98.93
32083;BME280;18597;48.328;7.932;2022-09-09T06:39:32;99197.47;;;17.48;98.88
32083;BME280;18597;48.328;7.932;2022-09-09T06:41:58;99190.41;;;17.47;96.82
32083;BME280;18597;48.328;7.932;2022-09-09T06:44:24;99200.09;;;17.57;95.48
32083;BME280;18597;48.328;7.932;2022-09-09T06:46:52;99200.81;;;17.65;96.60
32083;BME280;18597;48.328;7.932;2022-09-09T06:49:18;99201.31;;;17.84;97.27
32083;BME280;18597;48.328;7.932;2022-09-09T06:51:44;99201.16;;;18.21;95.29
32083;BME280;18597;48.328;7.932;2022-09-09T06:54:11;99190.53;;;18.63;88.74
32083;BME280;18597;48.328;7.932;2022-09-09T06:56:39;99188.38;;;19.22;83.79
32083;BME280;18597;48.328;7.932;2022-09-09T06:59:08;99201.88;;;19.85;80.97
32083;BME280;18597;48.328;7.932;2022-09-09T07:01:37;99205.94;;;20.83;78.83
32083;BME280;18597;48.328;7.932;2022-09-09T07:04:05;99208.22;;;22.30;70.53
32083;BME280;18597;48.328;7.932;2022-09-09T07:06:38;99210.94;;;22.30;69.09
32083;BME280;18597;48.328;7.932;2022-09-09T07:09:08;99210.47;;;21.82;70.38
32083;BME280;18597;48.328;7.932;2022-09-09T07:11:40;99218.09;;;20.94;72.59
32083;BME280;18597;48.328;7.932;2022-09-09T07:14:07;99212.22;;;20.64;74.81
32083;BME280;18597;48.328;7.932;2022-09-09T07:16:34;99222.13;;;20.37;73.70
32083;BME280;18597;48.328;7.932;2022-09-09T07:19:03;99219.06;;;20.53;76.15
32083;BME280;18597;48.328;7.932;2022-09-09T07:21:31;99220.16;;;20.92;72.31
32083;BME280;18597;48.328;7.932;2022-09-09T07:23:58;99223.94;;;20.97;71.72
32083;BME280;18597;48.328;7.932;2022-09-09T07:26:27;99214.28;;;20.68;70.24
32083;BME280;18597;48.328;7.932;2022-09-09T07:28:54;99214.66;;;20.45;72.25
32083;BME280;18597;48.328;7.932;2022-09-09T07:31:28;99208.66;;;20.57;72.73
32083;BME280;18597;48.328;7.932;2022-09-09T07:33:56;99215.56;;;21.58;68.17
32083;BME280;18597;48.328;7.932;2022-09-09T07:36:25;99217.28;;;22.04;62.41
32083;BME280;18597;48.328;7.932;2022-09-09T07:38:56;99213.09;;;22.91;59.72
32083;BME280;18597;48.328;7.932;2022-09-09T07:41:27;99207.81;;;25.45;52.00
32083;BME280;18597;48.328;7.932;2022-09-09T07:43:54;99208.91;;;28.38;44.89
32083;BME280;18597;48.328;7.932;2022-09-09T07:46:23;99208.63;;;30.78;38.09
32083;BME280;18597;48.328;7.932;2022-09-09T07:48:54;99213.31;;;31.59;37.31
32083;BME280;18597;48.328;7.932;2022-09-09T07:51:26;99205.53;;;33.34;33.48
32083;BME280;18597;48.328;7.932;2022-09-09T07:53:56;99189.38;;;35.64;30.15
32083;BME280;18597;48.328;7.932;2022-09-09T07:56:25;99189.91;;;38.00;nan
32083;BME280;18597;48.328;7.932;2022-09-09T07:58:53;99180.94;;;39.68;24.19
32083;BME280;18597;48.328;7.932;2022-09-09T08:01:24;99183.00;;;40.47;23.70
32083;BME280;18597;48.328;7.932;2022-09-09T08:04:02;99190.41;;;41.27;22.40
32083;BME280;18597;48.328;7.932;2022-09-09T08:06:32;99189.28;;;41.07;22.85
32083;BME280;18597;48.328;7.932;2022-09-09T08:08:59;99176.16;;;42.02;21.99
32083;BME280;18597;48.328;7.932;2022-09-09T08:11:27;99174.97;;;42.39;20.33
32083;BME280;18597;48.328;7.932;2022-09-09T08:13:55;99177.06;;;42.95;20.65
32083;BME280;18597;48.328;7.932;2022-09-09T08:16:25;99169.13;;;43.41;20.41
32083;BME280;18597;48.328;7.932;2022-09-09T08:18:52;99176.13;;;43.94;19.34
32083;BME280;18597;48.328;7.932;2022-09-09T08:21:23;99167.69;;;44.45;19.02
32083;BME280;18597;48.328;7.932;2022-09-09T08:23:52;99180.00;;;44.06;19.01
32083;BME280;18597;48.328;7.932;2022-09-09T08:26:24;99175.56;;;43.41;18.89
32083;BME280;18597;48.328;7.932;2022-09-09T08:28:53;99179.44;;;41.01;20.36
32083;BME280;18597;48.328;7.932;2022-09-09T08:31:25;99183.41;;;36.39;25.67
32083;BME280;18597;48.328;7.932;2022-09-09T08:33:51;99164.03;;;33.29;29.41
32083;BME280;18597;48.328;7.932;2022-09-09T08:36:19;99167.31;;;31.29;32.93
32083;BME280;18597;48.328;7.932;2022-09-09T08:38:53;99161.19;;;29.40;34.62
32083;BME280;18597;48.328;7.932;2022-09-09T08:41:54;99146.44;;;25.88;41.36
32083;BME280;18597;48.328;7.932;2022-09-09T08:44:58;99161.47;;;25.27;44.17
32083;BME280;18597;48.328;7.932;2022-09-09T08:48:12;99152.91;;;25.11;44.58
32083;BME280;18597;48.328;7.932;2022-09-09T08:50:43;99170.16;;;25.35;44.70
32083;BME280;18597;48.328;7.932;2022-09-09T08:53:22;99167.38;;;25.59;43.89
32083;BME280;18597;48.328;7.932;2022-09-09T08:55:54;99172.47;;;25.90;43.71
32083;BME280;18597;48.328;7.932;2022-09-09T08:58:32;99175.66;;;25.99;43.27
32083;BME280;18597;48.328;7.932;2022-09-09T09:01:29;99172.97;;;25.64;42.03
32083;BME280;18597;48.328;7.932;2022-09-09T09:04:28;99158.34;;;25.82;41.35
32083;BME280;18597;48.328;7.932;2022-09-09T09:07:28;99169.03;;;26.23;40.55
32083;BME280;18597;48.328;7.932;2022-09-09T09:10:49;99163.81;;;26.50;38.92
32083;BME280;18597;48.328;7.932;2022-09-09T09:13:01;99150.38;;;25.80;39.65
32083;BME280;18597;48.328;7.932;2022-09-09T09:15:36;99147.88;;;25.67;39.72
32083;BME280;18597;48.328;7.932;2022-09-09T09:18:04;99155.06;;;25.33;42.70
32083;BME280;18597;48.328;7.932;2022-09-09T09:21:00;99157.00;;;24.79;44.37
32083;BME280;18597;48.328;7.932;2022-09-09T09:23:40;99174.28;;;24.31;45.75
32083;BME280;18597;48.328;7.932;2022-09-09T09:26:10;99191.28;;;24.15;48.45
32083;BME280;18597;48.328;7.932;2022-09-09T09:28:42;99214.44;;;23.75;50.10
32083;BME280;18597;48.328;7.932;2022-09-09T09:31:11;99243.00;;;22.98;58.22
32083;BME280;18597;48.328;7.932;2022-09-09T09:36:16;99271.56;;;18.85;80.99
32083;BME280;18597;48.328;7.932;2022-09-09T09:39:00;99273.13;;;17.63;94.26
32083;BME280;18597;48.328;7.932;2022-09-09T09:41:40;99295.25;;;16.83;100.00
32083;BME280;18597;48.328;7.932;2022-09-09T09:44:26;99286.53;;;16.42;100.00
32083;BME280;18597;48.328;7.932;2022-09-09T09:47:16;99275.38;;;16.14;100.00
32083;BME280;18597;48.328;7.932;2022-09-09T09:49:59;99282.03;;;16.34;100.00
32083;BME280;18597;48.328;7.932;2022-09-09T09:52:29;99301.09;;;16.64;100.00
32083;BME280;18597;48.328;7.932;2022-09-09T09:54:57;99301.66;;;16.82;100.00
32083;BME280;18597;48.328;7.932;2022-09-09T09:57:28;99277.97;;;16.92;100.00
32083;BME280;18597;48.328;7.932;2022-09-09T10:00:21;99275.44;;;16.91;100.00
32083;BME280;18597;48.328;7.932;2022-09-09T10:02:48;99280.13;;;16.74;100.00
32083;BME280;18597;48.328;7.932;2022-09-09T10:08:15;99273.47;;;17.08;100.00
32083;BME280;18597;48.328;7.932;2022-09-09T10:11:25;99265.66;;;17.65;100.00
32083;BME280;18597;48.328;7.932;2022-09-09T10:14:24;99264.00;;;17.94;100.00
32083;BME280;18597;48.328;7.932;2022-09-09T10:23:46;99256.88;;;18.95;100.00
32083;BME280;18597;48.328;7.932;2022-09-09T10:30:22;99253.59;;;18.78;96.86
32083;BME280;18597;48.328;7.932;2022-09-09T10:33:09;99245.03;;;18.74;100.00
32083;BME280;18597;48.328;7.932;2022-09-09T10:36:02;99239.44;;;18.61;100.00
32083;BME280;18597;48.328;7.932;2022-09-09T10:38:46;99238.06;;;18.50;100.00
32083;BME280;18597;48.328;7.932;2022-09-09T10:48:31;99225.59;;;21.18;95.45
32083;BME280;18597;48.328;7.932;2022-09-09T10:50:59;99217.66;;;21.23;84.89
32083;BME280;18597;48.328;7.932;2022-09-09T10:56:17;99223.72;;;21.19;85.11
32083;BME280;18597;48.328;7.932;2022-09-09T10:59:10;99221.19;;;21.64;89.24
32083;BME280;18597;48.328;7.932;2022-09-09T11:01:47;99231.25;;;22.21;85.79
32083;BME280;18597;48.328;7.932;2022-09-09T11:04:31;99224.84;;;22.54;83.97
32083;BME280;18597;48.328;7.932;2022-09-09T11:07:08;99226.78;;;22.40;84.33
32083;BME280;18597;48.328;7.932;2022-09-09T11:09:42;99223.19;;;22.08;88.52
32083;BME280;18597;48.328;7.932;2022-09-09T11:12:19;99226.28;;;22.05;87.96
32083;BME280;18597;48.328;7.932;2022-09-09T11:14:56;99235.25;;;22.19;84.26
32083;BME280;18597;48.328;7.932;2022-09-09T11:17:30;99240.13;;;22.55;88.47
32083;BME280;18597;48.328;7.932;2022-09-09T11:19:59;99220.28;;;22.79;80.20
32083;BME280;18597;48.328;7.932;2022-09-09T11:25:29;99219.00;;;23.57;74.15
32083;BME280;18597;48.328;7.932;2022-09-09T11:28:38;99225.38;;;23.25;65.70
32083;BME280;18597;48.328;7.932;2022-09-09T11:35:16;99207.31;;;22.36;67.96
32083;BME280;18597;48.328;7.932;2022-09-09T11:38:29;99205.63;;;22.74;68.36
32083;BME280;18597;48.328;7.932;2022-09-09T11:41:02;99209.16;;;21.98;66.57
32083;BME280;18597;48.328;7.932;2022-09-09T11:43:49;99211.47;;;21.94;66.37
32083;BME280;18597;48.328;7.932;2022-09-09T11:46:19;99212.94;;;22.48;64.40
32083;BME280;18597;48.328;7.932;2022-09-09T11:49:00;99218.41;;;22.73;61.51
32083;BME280;18597;48.328;7.932;2022-09-09T11:51:29;99224.00;;;23.66;61.21
32083;BME280;18597;48.328;7.932;2022-09-09T11:54:04;99223.44;;;23.94;53.70
32083;BME280;18597;48.328;7.932;2022-09-09T11:56:48;99221.25;;;23.66;54.42
32083;BME280;18597;48.328;7.932;2022-09-09T11:59:24;99221.94;;;23.98;55.05
32083;BME280;18597;48.328;7.932;2022-09-09T12:02:03;99224.50;;;24.12;53.55
32083;BME280;18597;48.328;7.932;2022-09-09T12:04:41;99222.28;;;24.39;52.54
32083;BME280;18597;48.328;7.932;2022-09-09T12:09:52;99225.28;;;24.19;52.42
32083;BME280;18597;48.328;7.932;2022-09-09T12:12:33;99221.19;;;24.58;50.81
32083;BME280;18597;48.328;7.932;2022-09-09T12:17:49;99216.53;;;25.00;49.73
32083;BME280;18597;48.328;7.932;2022-09-09T12:23:51;99209.50;;;25.69;47.35
32083;BME280;18597;48.328;7.932;2022-09-09T12:26:56;99196.84;;;25.92;47.19
32083;BME280;18597;48.328;7.932;2022-09-09T12:30:18;99195.19;;;25.67;46.45
32083;BME280;18597;48.328;7.932;2022-09-09T12:32:32;99197.38;;;25.42;46.14
32083;BME280;18597;48.328;7.932;2022-09-09T12:35:21;99194.16;;;25.10;49.78
32083;BME280;18597;48.328;7.932;2022-09-09T12:37:58;99202.72;;;25.25;51.53
32083;BME280;18597;48.328;7.932;2022-09-09T12:40:32;99190.09;;;25.59;49.67
32083;BME280;18597;48.328;7.932;2022-09-09T12:43:02;99194.16;;;26.20;49.01
32083;BME280;18597;48.328;7.932;2022-09-09T12:45:31;99183.69;;;25.77;46.97
32083;BME280;18597;48.328;7.932;2022-09-09T12:48:04;99182.44;;;24.91;48.37
32083;BME280;18597;48.328;7.932;2022-09-09T12:50:36;99188.06;;;23.88;50.10
32083;BME280;18597;48.328;7.932;2022-09-09T12:53:10;99167.59;;;23.17;52.86
32083;BME280;18597;48.328;7.932;2022-09-09T12:55:57;99160.50;;;23.16;52.10
32083;BME280;18597;48.328;7.932;2022-09-09T12:58:24;99159.91;;;23.32;53.50
32083;BME280;18597;48.328;7.932;2022-09-09T13:00:54;99160.25;;;23.17;49.31
32083;BME280;18597;48.328;7.932;2022-09-09T13:03:24;99159.88;;;23.14;53.32
32083;BME280;18597;48.328;7.932;2022-09-09T13:05:52;99165.00;;;23.29;52.46
32083;BME280;18597;48.328;7.932;2022-09-09T13:08:19;99152.84;;;23.24;49.85
32083;BME280;18597;48.328;7.932;2022-09-09T13:10:59;99161.09;;;23.18;49.48
32083;BME280;18597;48.328;7.932;2022-09-09T13:13:38;99151.75;;;23.50;47.86
32083;BME280;18597;48.328;7.932;2022-09-09T13:16:15;99140.53;;;23.95;46.77
32083;BME280;18597;48.328;7.932;2022-09-09T13:18:43;99134.31;;;24.06;47.04
32083;BME280;18597;48.328;7.932;2022-09-09T13:21:09;99132.19;;;24.39;45.48
32083;BME280;18597;48.328;7.932;2022-09-09T13:23:37;99126.78;;;24.62;45.23
32083;BME280;18597;48.328;7.932;2022-09-09T13:26:27;99129.56;;;24.74;45.54
32083;BME280;18597;48.328;7.932;2022-09-09T13:28:54;99123.97;;;24.92;44.33
32083;BME280;18597;48.328;7.932;2022-09-09T13:33:56;99130.53;;;25.73;44.28
32083;BME280;18597;48.328;7.932;2022-09-09T13:36:32;99125.03;;;26.13;41.63
32083;BME280;18597;48.328;7.932;2022-09-09T13:39:01;99124.22;;;26.41;41.60
32083;BME280;18597;48.328;7.932;2022-09-09T13:41:35;99121.50;;;26.29;40.00
32083;BME280;18597;48.328;7.932;2022-09-09T13:44:03;99122.41;;;25.66;39.03
32083;BME280;18597;48.328;7.932;2022-09-09T13:51:47;99122.19;;;24.74;41.78
32083;BME280;18597;48.328;7.932;2022-09-09T13:54:17;99121.97;;;24.76;42.18
32083;BME280;18597;48.328;7.932;2022-09-09T13:56:45;99115.94;;;25.21;41.83
32083;BME280;18597;48.328;7.932;2022-09-09T13:59:14;99123.41;;;25.37;41.04
32083;BME280;18597;48.328;7.932;2022-09-09T14:01:41;99131.19;;;25.68;41.12
32083;BME280;18597;48.328;7.932;2022-09-09T14:04:07;99123.81;;;25.92;39.42
32083;BME280;18597;48.328;7.932;2022-09-09T14:06:35;99130.47;;;26.25;39.22
32083;BME280;18597;48.328;7.932;2022-09-09T14:09:06;99139.78;;;26.12;39.00
32083;BME280;18597;48.328;7.932;2022-09-09T14:11:33;99131.78;;;26.22;39.41
32083;BME280;18597;48.328;7.932;2022-09-09T14:13:58;99122.56;;;26.28;39.44
32083;BME280;18597;48.328;7.932;2022-09-09T14:16:26;99131.09;;;25.87;40.27
32083;BME280;18597;48.328;7.932;2022-09-09T14:18:53;99132.66;;;25.71;40.29
32083;BME280;18597;48.328;7.932;2022-09-09T14:21:22;99126.72;;;25.39;41.28
32083;BME280;18597;48.328;7.932;2022-09-09T14:23:48;99134.13;;;25.03;41.03
32083;BME280;18597;48.328;7.932;2022-09-09T14:26:14;99139.31;;;24.81;42.17
32083;BME280;18597;48.328;7.932;2022-09-09T14:28:40;99149.22;;;24.52;39.08
32083;BME280;18597;48.328;7.932;2022-09-09T14:31:07;99137.72;;;24.32;39.73
32083;BME280;18597;48.328;7.932;2022-09-09T14:33:32;99142.50;;;24.06;39.51
32083;BME280;18597;48.328;7.932;2022-09-09T14:36:01;99147.72;;;24.08;40.02
32083;BME280;18597;48.328;7.932;2022-09-09T14:38:32;99146.88;;;24.07;40.72